Biddle, Montana
Current Conditions -  °F | °C
As of 1:53 PM on Monday 22 Dec 2014 (Local Time) from KGCC Reporting Station
Broken Clouds Broken Clouds  
Wind Chill: 22°   Ceiling: 3300
Heat Index: 35°   Visibility: 10mi
Dew Point: 24°   Wind: 28mph
Humidity: 64%   Direction: 310°NW
Pressure: 29.68"   Gusts: 36mph
Location:  45.1°N, 105.35°W
Report Text: KGCC 222053Z AUTO 31024G31KT 10SM BKN033 BKN055 BKN085 02/M04 A2968 RMK AO2 PK WND 31035/2021 SLP070 T00171044 53006 TSNO
Loading
Personal Weather Stations






























Interactive Weather Map New forecast layout! Learn more

10-Day Weather Forecast

Advertisements
Track Severe Weather on mobile